createdAt,value
2018-07-17T00:00:57.796Z,19.58
2018-07-17T00:03:59.992Z,19.60
2018-07-17T00:07:02.020Z,19.60
2018-07-17T00:10:04.406Z,19.62
2018-07-17T00:13:06.431Z,19.60
2018-07-17T00:16:08.702Z,19.59
2018-07-17T00:19:11.834Z,19.62
2018-07-17T00:22:14.532Z,19.63
2018-07-17T00:25:16.709Z,19.63
2018-07-17T00:28:18.773Z,19.57
2018-07-17T00:31:20.940Z,19.54
2018-07-17T00:34:23.004Z,19.52
2018-07-17T00:37:25.120Z,19.52
2018-07-17T00:40:27.258Z,19.47
2018-07-17T00:43:29.312Z,19.29
2018-07-17T00:46:31.371Z,19.28
2018-07-17T00:49:33.554Z,19.30
2018-07-17T00:52:35.624Z,19.23
2018-07-17T00:55:37.849Z,19.22
2018-07-17T00:58:39.964Z,19.24
2018-07-17T01:01:47.789Z,19.26
2018-07-17T01:04:55.430Z,19.25
2018-07-17T01:08:03.367Z,19.20
2018-07-17T01:11:11.320Z,19.17
2018-07-17T01:14:20.602Z,19.22
2018-07-17T01:17:23.169Z,19.27
2018-07-17T01:20:25.435Z,19.25
2018-07-17T01:23:27.550Z,19.24
2018-07-17T01:26:29.614Z,19.20
2018-07-17T01:29:31.661Z,19.20
2018-07-17T01:32:33.847Z,19.18
2018-07-17T01:35:35.934Z,19.14
2018-07-17T01:38:38.199Z,19.12
2018-07-17T01:41:40.961Z,19.04
2018-07-17T01:44:44.165Z,18.98
2018-07-17T01:47:46.245Z,18.84
2018-07-17T01:50:50.375Z,18.74
2018-07-17T01:53:52.546Z,18.73
2018-07-17T01:56:54.602Z,18.69
2018-07-17T01:59:56.723Z,18.65
2018-07-17T02:02:58.688Z,18.63
2018-07-17T02:06:00.823Z,18.65
2018-07-17T02:09:03.161Z,18.61
2018-07-17T02:12:05.171Z,18.57
2018-07-17T02:15:07.198Z,18.52
2018-07-17T02:18:09.275Z,18.43
2018-07-17T02:21:11.473Z,18.44
2018-07-17T02:24:14.643Z,18.41
2018-07-17T02:27:16.751Z,18.41
2018-07-17T02:30:20.888Z,18.38
2018-07-17T02:33:22.996Z,18.38
2018-07-17T02:36:25.085Z,18.39
2018-07-17T02:39:27.226Z,18.30
2018-07-17T02:42:29.197Z,18.20
2018-07-17T02:45:31.271Z,18.15
2018-07-17T02:48:33.460Z,18.14
2018-07-17T02:51:35.527Z,18.16
2018-07-17T02:54:37.589Z,18.15
2018-07-17T02:57:39.655Z,18.10
2018-07-17T03:00:41.624Z,18.09
2018-07-17T03:03:44.687Z,18.05
2018-07-17T03:06:46.939Z,18.10
2018-07-17T03:09:49.049Z,18.10
2018-07-17T03:12:51.500Z,18.01
2018-07-17T03:15:53.642Z,18.02
2018-07-17T03:18:55.764Z,18.05
2018-07-17T03:21:57.736Z,18.07
2018-07-17T03:24:59.929Z,18.02
2018-07-17T03:28:02.096Z,17.96
2018-07-17T03:31:06.106Z,17.96
2018-07-17T03:34:10.228Z,17.97
2018-07-17T03:37:13.204Z,18.10
2018-07-17T03:40:15.289Z,18.08
2018-07-17T03:43:17.452Z,18.06
2018-07-17T03:46:19.630Z,18.02
2018-07-17T03:49:21.724Z,17.99
2018-07-17T03:52:23.785Z,17.93
2018-07-17T03:55:25.968Z,17.86
2018-07-17T03:58:28.071Z,17.78
2018-07-17T04:01:30.045Z,17.71
2018-07-17T04:04:32.164Z,17.63
2018-07-17T04:07:35.038Z,17.70
2018-07-17T04:10:37.174Z,17.67
2018-07-17T04:13:39.124Z,17.66
2018-07-17T04:16:46.028Z,17.72
2018-07-17T04:19:48.096Z,17.80
2018-07-17T04:22:50.036Z,17.79
2018-07-17T04:25:54.111Z,17.79
2018-07-17T04:28:56.352Z,17.82
2018-07-17T04:31:59.445Z,17.89
2018-07-17T04:35:01.652Z,17.93
2018-07-17T04:38:03.807Z,18.03
2018-07-17T04:41:06.158Z,18.10
2018-07-17T04:44:09.144Z,18.17
2018-07-17T04:47:11.100Z,18.27
2018-07-17T04:50:13.307Z,18.32
2018-07-17T04:53:15.464Z,18.35
2018-07-17T04:56:19.025Z,18.35
2018-07-17T04:59:21.732Z,18.39
2018-07-17T05:02:23.829Z,18.48
2018-07-17T05:05:25.883Z,18.53
2018-07-17T05:08:27.973Z,18.59
2018-07-17T05:11:31.170Z,18.66
2018-07-17T05:14:33.329Z,18.79
2018-07-17T05:17:35.367Z,18.87
2018-07-17T05:20:37.481Z,18.90
2018-07-17T05:23:39.727Z,18.95
2018-07-17T05:26:41.800Z,18.95
2018-07-17T05:29:44.575Z,18.91
2018-07-17T05:32:46.611Z,19.01
2018-07-17T05:35:48.626Z,19.11
2018-07-17T05:38:50.697Z,19.14
2018-07-17T05:41:52.788Z,19.29
2018-07-17T05:44:54.774Z,19.44
2018-07-17T05:47:56.927Z,19.58
2018-07-17T05:50:59.044Z,19.66
2018-07-17T05:54:01.242Z,19.79
2018-07-17T05:57:03.437Z,19.91
2018-07-17T06:00:06.442Z,19.97
2018-07-17T06:03:08.483Z,20.15
2018-07-17T06:06:11.588Z,20.24
2018-07-17T06:09:14.377Z,20.33
2018-07-17T06:12:17.459Z,20.44
2018-07-17T06:15:19.469Z,20.56
2018-07-17T06:18:21.595Z,20.65
2018-07-17T06:21:23.809Z,20.66
2018-07-17T06:24:26.025Z,20.72
2018-07-17T06:27:28.059Z,20.82
2018-07-17T06:30:30.223Z,20.79
2018-07-17T06:33:32.330Z,20.78
2018-07-17T06:36:34.581Z,20.75
2018-07-17T06:39:38.136Z,20.71
2018-07-17T06:42:40.396Z,20.90
2018-07-17T06:45:42.559Z,21.11
2018-07-17T06:48:44.604Z,21.18
2018-07-17T06:51:46.788Z,21.35
2018-07-17T06:54:48.781Z,21.48
2018-07-17T06:57:50.841Z,21.57
2018-07-17T07:00:52.901Z,21.60
2018-07-17T07:03:55.025Z,21.66
2018-07-17T07:06:57.147Z,21.71
2018-07-17T07:09:59.164Z,21.92
2018-07-17T07:13:02.332Z,21.98
2018-07-17T07:16:05.430Z,22.05
2018-07-17T07:19:07.453Z,22.14
2018-07-17T07:22:09.641Z,22.25
2018-07-17T07:25:11.579Z,22.40
2018-07-17T07:28:13.521Z,22.57
2018-07-17T07:31:15.510Z,22.69
2018-07-17T07:34:18.607Z,22.85
2018-07-17T07:37:20.783Z,23.05
2018-07-17T07:40:22.740Z,23.22
2018-07-17T07:43:24.856Z,23.31
2018-07-17T07:46:26.803Z,23.49
2018-07-17T07:49:28.861Z,23.68
2018-07-17T07:52:31.029Z,23.71
2018-07-17T07:55:33.041Z,23.69
2018-07-17T07:58:35.064Z,23.60
2018-07-17T08:01:38.159Z,23.79
2018-07-17T08:04:40.274Z,24.14
2018-07-17T08:07:42.313Z,24.42
2018-07-17T08:10:44.552Z,24.49
2018-07-17T08:13:46.731Z,24.59
2018-07-17T08:16:48.839Z,24.61
2018-07-17T08:19:51.008Z,24.85
2018-07-17T08:22:53.114Z,25.03
2018-07-17T08:25:55.348Z,25.19
2018-07-17T08:28:57.423Z,25.30
2018-07-17T08:31:59.636Z,25.44
2018-07-17T08:35:01.639Z,25.38
2018-07-17T08:38:03.763Z,25.37
2018-07-17T08:41:05.800Z,25.33
2018-07-17T08:44:08.600Z,25.67
2018-07-17T08:47:11.011Z,26.03
2018-07-17T08:50:13.079Z,26.24
2018-07-17T08:53:16.236Z,26.28
2018-07-17T08:56:18.300Z,26.24
2018-07-17T08:59:20.471Z,26.11
2018-07-17T09:02:22.513Z,26.31
2018-07-17T09:05:24.788Z,26.54
2018-07-17T09:08:26.928Z,26.75
2018-07-17T09:11:29.036Z,26.72
2018-07-17T09:14:31.144Z,26.65
2018-07-17T09:17:33.299Z,26.84
2018-07-17T09:20:35.468Z,26.68
2018-07-17T09:23:38.674Z,26.87
2018-07-17T09:26:40.832Z,27.00
2018-07-17T09:29:42.871Z,27.13
2018-07-17T09:32:44.955Z,27.27
2018-07-17T09:35:46.908Z,27.51
2018-07-17T09:38:49.060Z,27.69
2018-07-17T09:41:52.120Z,27.75
2018-07-17T09:44:54.127Z,27.97
2018-07-17T09:47:56.306Z,28.07
2018-07-17T09:50:58.315Z,28.11
2018-07-17T09:54:00.484Z,28.21
2018-07-17T09:57:02.705Z,28.23
2018-07-17T10:00:04.863Z,28.31
2018-07-17T10:03:07.904Z,28.57
2018-07-17T10:06:10.130Z,28.78
2018-07-17T10:09:12.260Z,28.87
2018-07-17T10:12:14.343Z,28.83
2018-07-17T10:15:16.553Z,28.75
2018-07-17T10:18:18.562Z,28.93
2018-07-17T10:21:20.632Z,28.99
2018-07-17T10:24:22.871Z,29.04
2018-07-17T10:27:24.867Z,29.06
2018-07-17T10:30:26.956Z,29.07
2018-07-17T10:33:28.957Z,28.90
2018-07-17T10:36:31.056Z,28.91
2018-07-17T10:39:33.112Z,29.13
2018-07-17T10:42:38.511Z,29.24
2018-07-17T10:45:40.569Z,29.52
2018-07-17T10:48:42.615Z,29.62
2018-07-17T10:51:45.776Z,29.57
2018-07-17T10:54:47.864Z,29.38
2018-07-17T10:57:50.179Z,29.39
2018-07-17T11:00:52.296Z,29.52
2018-07-17T11:03:54.304Z,29.63
2018-07-17T11:06:57.683Z,29.88
2018-07-17T11:09:59.900Z,30.00
2018-07-17T11:13:01.898Z,30.02
2018-07-17T11:16:04.176Z,29.64
2018-07-17T11:19:08.644Z,29.77
2018-07-17T11:22:11.640Z,30.16
2018-07-17T11:25:13.713Z,30.27
2018-07-17T11:28:15.768Z,30.07
2018-07-17T11:31:17.836Z,29.79
2018-07-17T11:34:19.914Z,29.56
2018-07-17T11:37:22.042Z,29.12
2018-07-17T11:40:24.139Z,28.72
2018-07-17T11:43:26.540Z,28.23
2018-07-17T11:46:28.746Z,27.86
2018-07-17T11:49:30.812Z,27.40
2018-07-17T11:52:32.937Z,26.91
2018-07-17T11:55:35.040Z,26.43
2018-07-17T11:58:37.024Z,25.87
2018-07-17T12:01:40.184Z,25.66
2018-07-17T12:04:42.249Z,25.41
2018-07-17T12:07:44.517Z,25.29
2018-07-17T12:10:46.593Z,25.28
2018-07-17T12:13:48.628Z,25.34
2018-07-17T12:16:51.029Z,25.36
2018-07-17T12:19:53.229Z,25.23
2018-07-17T12:22:55.204Z,25.08
2018-07-17T12:25:57.190Z,24.72
2018-07-17T12:28:59.139Z,24.35
2018-07-17T12:32:01.197Z,24.32
2018-07-17T12:35:04.433Z,24.29
2018-07-17T12:38:06.665Z,24.15
2018-07-17T12:41:09.539Z,24.05
2018-07-17T12:44:11.622Z,24.11
2018-07-17T12:47:13.716Z,24.08
2018-07-17T12:50:15.865Z,24.10
2018-07-17T12:53:17.908Z,23.44
2018-07-17T12:56:19.986Z,22.90
2018-07-17T12:59:22.055Z,22.94
2018-07-17T13:02:24.160Z,22.77
2018-07-17T13:05:26.305Z,22.49
2018-07-17T13:08:28.272Z,22.56
2018-07-17T13:11:30.420Z,22.69
2018-07-17T13:14:32.519Z,22.86
2018-07-17T13:17:34.819Z,23.02
2018-07-17T13:20:36.719Z,23.12
2018-07-17T13:23:38.723Z,23.14
2018-07-17T13:26:40.776Z,23.07
2018-07-17T13:29:42.870Z,22.95
2018-07-17T13:32:44.923Z,22.94
2018-07-17T13:35:46.970Z,22.87
2018-07-17T13:38:50.310Z,22.87
2018-07-17T13:41:52.428Z,22.82
2018-07-17T13:44:54.895Z,22.84
2018-07-17T13:47:56.987Z,22.63
2018-07-17T13:50:59.091Z,22.14
2018-07-17T13:54:01.126Z,21.85
2018-07-17T13:57:03.101Z,21.88
2018-07-17T14:00:07.329Z,22.04
2018-07-17T14:03:09.352Z,21.89
2018-07-17T14:06:11.551Z,21.83
2018-07-17T14:09:13.563Z,22.10
2018-07-17T14:12:16.097Z,22.87
2018-07-17T14:15:18.210Z,23.60
2018-07-17T14:18:21.072Z,24.34
2018-07-17T14:21:23.133Z,24.75
2018-07-17T14:24:25.215Z,25.29
2018-07-17T14:27:27.320Z,25.96
2018-07-17T14:30:30.450Z,26.57
2018-07-17T14:33:32.508Z,27.13
2018-07-17T14:36:34.527Z,27.37
2018-07-17T14:39:37.520Z,27.60
2018-07-17T14:42:40.579Z,27.91
2018-07-17T14:45:42.685Z,28.21
2018-07-17T14:48:44.800Z,28.44
2018-07-17T14:51:46.929Z,28.56
2018-07-17T14:54:49.157Z,28.70
2018-07-17T14:57:52.518Z,28.78
2018-07-17T15:00:54.556Z,28.90
2018-07-17T15:03:56.563Z,29.00
2018-07-17T15:06:59.736Z,29.10
2018-07-17T15:10:02.181Z,29.17
2018-07-17T15:13:04.313Z,29.24
2018-07-17T15:16:06.595Z,29.33
2018-07-17T15:19:10.466Z,29.43
2018-07-17T15:22:12.535Z,29.64
2018-07-17T15:25:14.498Z,29.67
2018-07-17T15:28:16.698Z,29.65
2018-07-17T15:31:18.637Z,29.59
2018-07-17T15:34:20.814Z,29.79
2018-07-17T15:37:23.539Z,29.90
2018-07-17T15:40:25.729Z,29.93
2018-07-17T15:43:27.809Z,30.00
2018-07-17T15:46:29.876Z,30.04
2018-07-17T15:49:32.523Z,29.70
2018-07-17T15:52:34.768Z,29.56
2018-07-17T15:55:36.963Z,29.31
2018-07-17T15:58:40.056Z,28.99
2018-07-17T16:01:42.281Z,28.76
2018-07-17T16:04:44.436Z,27.74
2018-07-17T16:07:46.603Z,27.49
2018-07-17T16:10:48.695Z,26.88
2018-07-17T16:13:50.928Z,26.40
2018-07-17T16:16:53.083Z,26.12
2018-07-17T16:19:55.739Z,25.89
2018-07-17T16:22:57.796Z,25.90
2018-07-17T16:25:59.955Z,25.90
2018-07-17T16:29:02.125Z,25.98
2018-07-17T16:32:04.297Z,26.00
2018-07-17T16:35:06.403Z,25.87
2018-07-17T16:38:08.363Z,26.03
2018-07-17T16:41:11.625Z,26.70
2018-07-17T16:44:13.822Z,27.31
2018-07-17T16:47:15.833Z,27.69
2018-07-17T16:50:17.844Z,27.75
2018-07-17T16:53:19.843Z,27.62
2018-07-17T16:56:22.110Z,27.57
2018-07-17T16:59:24.304Z,27.52
2018-07-17T17:02:26.336Z,27.60
2018-07-17T17:05:28.315Z,27.68
2018-07-17T17:08:30.406Z,27.82
2018-07-17T17:11:32.591Z,27.87
2018-07-17T17:14:38.442Z,28.01
2018-07-17T17:17:41.603Z,28.05
2018-07-17T17:20:43.849Z,28.10
2018-07-17T17:23:46.052Z,28.07
2018-07-17T17:26:48.014Z,28.15
2018-07-17T17:29:50.439Z,28.19
2018-07-17T17:32:52.713Z,28.22
2018-07-17T17:35:55.924Z,28.17
2018-07-17T17:38:58.084Z,28.17
2018-07-17T17:42:00.231Z,28.21
2018-07-17T17:45:02.209Z,28.15
2018-07-17T17:48:04.582Z,28.09
2018-07-17T17:51:06.999Z,28.06
2018-07-17T17:54:09.015Z,28.03
2018-07-17T17:57:12.238Z,27.96
2018-07-17T18:00:14.324Z,27.87
2018-07-17T18:03:16.775Z,27.88
2018-07-17T18:06:19.019Z,27.84
2018-07-17T18:09:21.100Z,27.74
2018-07-17T18:12:23.239Z,27.72
2018-07-17T18:15:25.229Z,27.72
2018-07-17T18:18:27.588Z,27.71
2018-07-17T18:21:29.608Z,27.66
2018-07-17T18:24:31.820Z,27.61
2018-07-17T18:27:33.844Z,27.51
2018-07-17T18:30:36.034Z,27.48
2018-07-17T18:33:38.169Z,27.43
2018-07-17T18:36:42.342Z,27.37
2018-07-17T18:39:44.494Z,27.26
2018-07-17T18:42:46.638Z,27.21
2018-07-17T18:45:48.604Z,27.14
2018-07-17T18:48:50.839Z,27.09
2018-07-17T18:51:52.957Z,26.96
2018-07-17T18:54:55.038Z,26.86
2018-07-17T18:57:57.227Z,26.73
2018-07-17T19:00:59.336Z,26.63
2018-07-17T19:04:01.395Z,26.53
2018-07-17T19:07:03.706Z,26.41
2018-07-17T19:10:05.850Z,26.31
2018-07-17T19:13:08.081Z,26.23
2018-07-17T19:16:11.412Z,26.10
2018-07-17T19:19:13.431Z,25.97
2018-07-17T19:22:15.479Z,25.82
2018-07-17T19:25:17.727Z,25.67
2018-07-17T19:28:19.738Z,25.55
2018-07-17T19:31:21.900Z,25.44
2018-07-17T19:34:24.130Z,25.37
2018-07-17T19:37:26.372Z,25.30
2018-07-17T19:40:28.435Z,25.21
2018-07-17T19:43:30.458Z,25.15
2018-07-17T19:46:32.581Z,25.09
2018-07-17T19:49:34.607Z,24.94
2018-07-17T19:52:36.811Z,24.74
2018-07-17T19:55:38.815Z,24.63
2018-07-17T19:58:41.984Z,24.56
2018-07-17T20:01:44.045Z,24.49
2018-07-17T20:04:46.231Z,24.43
2018-07-17T20:07:49.356Z,24.26
2018-07-17T20:10:51.574Z,24.22
2018-07-17T20:13:53.740Z,24.18
2018-07-17T20:16:55.796Z,24.24
2018-07-17T20:19:57.792Z,24.26
2018-07-17T20:22:59.945Z,24.22
2018-07-17T20:26:01.956Z,24.24
2018-07-17T20:29:04.416Z,24.17
2018-07-17T20:32:06.620Z,24.05
2018-07-17T20:35:08.712Z,24.03
2018-07-17T20:38:11.474Z,23.98
2018-07-17T20:41:13.604Z,24.01
2018-07-17T20:44:15.763Z,23.98
2018-07-17T20:47:18.078Z,23.92
2018-07-17T20:50:21.243Z,23.86
2018-07-17T20:53:23.424Z,23.86
2018-07-17T20:56:25.472Z,23.88
2018-07-17T20:59:27.609Z,23.88
2018-07-17T21:02:29.814Z,23.87
2018-07-17T21:05:31.904Z,23.86
2018-07-17T21:08:34.061Z,23.82
2018-07-17T21:11:36.340Z,23.75
2018-07-17T21:14:38.417Z,23.67
2018-07-17T21:17:41.415Z,23.54
2018-07-17T21:20:43.489Z,23.43
2018-07-17T21:23:45.636Z,23.41
2018-07-17T21:26:47.833Z,23.36
2018-07-17T21:29:50.280Z,23.17
2018-07-17T21:32:52.483Z,23.02
2018-07-17T21:35:54.611Z,22.94
2018-07-17T21:38:57.887Z,22.83
2018-07-17T21:42:00.075Z,22.63
2018-07-17T21:45:02.224Z,22.39
2018-07-17T21:48:04.539Z,22.05
2018-07-17T21:51:06.661Z,21.75
2018-07-17T21:54:08.916Z,21.60
2018-07-17T21:57:10.953Z,21.65
2018-07-17T22:00:13.210Z,21.86
2018-07-17T22:03:15.206Z,22.00
2018-07-17T22:06:17.743Z,22.04
2018-07-17T22:09:19.825Z,22.02
2018-07-17T22:12:21.814Z,22.03
2018-07-17T22:15:23.988Z,22.04
2018-07-17T22:18:26.217Z,22.06
2018-07-17T22:21:28.323Z,22.04
2018-07-17T22:24:30.406Z,22.08
2018-07-17T22:27:32.462Z,22.12
2018-07-17T22:30:36.627Z,22.19
2018-07-17T22:33:38.652Z,22.28
2018-07-17T22:36:40.815Z,22.30
2018-07-17T22:39:44.036Z,22.19
2018-07-17T22:42:46.364Z,22.08
2018-07-17T22:45:48.388Z,22.12
2018-07-17T22:48:51.460Z,22.22
2018-07-17T22:51:54.576Z,22.18
2018-07-17T22:54:56.568Z,22.25
2018-07-17T22:58:02.884Z,22.21
2018-07-17T23:01:05.575Z,22.18
2018-07-17T23:04:07.772Z,22.15
2018-07-17T23:07:09.896Z,22.17
2018-07-17T23:10:13.236Z,22.23
2018-07-17T23:13:15.370Z,22.25
2018-07-17T23:16:17.337Z,22.21
2018-07-17T23:19:19.549Z,22.13
2018-07-17T23:22:28.912Z,22.13
2018-07-17T23:25:32.019Z,22.08
2018-07-17T23:28:34.119Z,22.05
2018-07-17T23:31:36.300Z,21.97
2018-07-17T23:34:38.396Z,21.90
2018-07-17T23:37:40.376Z,21.87
2018-07-17T23:40:43.219Z,21.83
2018-07-17T23:43:45.276Z,21.81
2018-07-17T23:46:47.218Z,21.82
2018-07-17T23:49:51.354Z,21.78
2018-07-17T23:52:54.494Z,21.70
2018-07-17T23:55:56.631Z,21.61
2018-07-17T23:58:58.827Z,21.45
